sensor_id;sensor_type;location;lat;lon;timestamp;P1;durP1;ratioP1;P2;durP2;ratioP2
25581;SDS011;13462;50.764;4.332;2022-07-04T00:00:15;4.72;;;2.72;;
25581;SDS011;13462;50.764;4.332;2022-07-04T00:02:43;3.35;;;2.65;;
25581;SDS011;13462;50.764;4.332;2022-07-04T00:05:10;5.55;;;2.90;;
25581;SDS011;13462;50.764;4.332;2022-07-04T00:07:37;4.45;;;2.92;;
25581;SDS011;13462;50.764;4.332;2022-07-04T00:10:07;7.57;;;3.25;;
25581;SDS011;13462;50.764;4.332;2022-07-04T00:12:34;9.27;;;2.60;;
25581;SDS011;13462;50.764;4.332;2022-07-04T00:15:00;7.00;;;3.15;;
25581;SDS011;13462;50.764;4.332;2022-07-04T00:17:26;4.95;;;2.78;;
25581;SDS011;13462;50.764;4.332;2022-07-04T00:19:52;5.10;;;3.20;;
25581;SDS011;13462;50.764;4.332;2022-07-04T00:22:17;4.75;;;2.85;;
25581;SDS011;13462;50.764;4.332;2022-07-04T00:24:43;5.63;;;2.90;;
25581;SDS011;13462;50.764;4.332;2022-07-04T00:27:09;3.45;;;2.90;;
25581;SDS011;13462;50.764;4.332;2022-07-04T00:29:34;9.30;;;3.70;;
25581;SDS011;13462;50.764;4.332;2022-07-04T00:32:00;5.93;;;2.80;;
25581;SDS011;13462;50.764;4.332;2022-07-04T00:34:26;6.13;;;3.30;;
25581;SDS011;13462;50.764;4.332;2022-07-04T00:36:52;7.55;;;3.10;;
25581;SDS011;13462;50.764;4.332;2022-07-04T00:39:18;5.45;;;2.80;;
25581;SDS011;13462;50.764;4.332;2022-07-04T00:41:43;8.77;;;3.15;;
25581;SDS011;13462;50.764;4.332;2022-07-04T00:44:10;4.32;;;3.15;;
25581;SDS011;13462;50.764;4.332;2022-07-04T00:46:37;7.40;;;3.20;;
25581;SDS011;13462;50.764;4.332;2022-07-04T00:49:03;3.72;;;3.00;;
25581;SDS011;13462;50.764;4.332;2022-07-04T00:51:30;7.07;;;3.47;;
25581;SDS011;13462;50.764;4.332;2022-07-04T00:53:56;5.35;;;2.85;;
25581;SDS011;13462;50.764;4.332;2022-07-04T00:56:22;4.68;;;3.00;;
25581;SDS011;13462;50.764;4.332;2022-07-04T00:58:48;3.60;;;3.33;;
25581;SDS011;13462;50.764;4.332;2022-07-04T01:01:15;3.38;;;2.78;;
25581;SDS011;13462;50.764;4.332;2022-07-04T01:03:47;9.68;;;3.53;;
25581;SDS011;13462;50.764;4.332;2022-07-04T01:06:14;6.13;;;2.80;;
25581;SDS011;13462;50.764;4.332;2022-07-04T01:08:42;4.40;;;2.78;;
25581;SDS011;13462;50.764;4.332;2022-07-04T01:11:08;4.25;;;2.70;;
25581;SDS011;13462;50.764;4.332;2022-07-04T01:13:35;5.93;;;3.03;;
25581;SDS011;13462;50.764;4.332;2022-07-04T01:16:01;6.55;;;3.53;;
25581;SDS011;13462;50.764;4.332;2022-07-04T01:18:28;5.47;;;3.50;;
25581;SDS011;13462;50.764;4.332;2022-07-04T01:20:53;5.85;;;3.10;;
25581;SDS011;13462;50.764;4.332;2022-07-04T01:23:19;6.45;;;3.08;;
25581;SDS011;13462;50.764;4.332;2022-07-04T01:25:45;5.47;;;2.88;;
25581;SDS011;13462;50.764;4.332;2022-07-04T01:28:10;7.22;;;3.38;;
25581;SDS011;13462;50.764;4.332;2022-07-04T01:30:36;10.35;;;3.90;;
25581;SDS011;13462;50.764;4.332;2022-07-04T01:33:03;3.88;;;3.10;;
25581;SDS011;13462;50.764;4.332;2022-07-04T01:35:29;5.25;;;3.58;;
25581;SDS011;13462;50.764;4.332;2022-07-04T01:37:56;4.38;;;3.10;;
25581;SDS011;13462;50.764;4.332;2022-07-04T01:40:22;6.80;;;3.05;;
25581;SDS011;13462;50.764;4.332;2022-07-04T01:42:48;7.97;;;3.30;;
25581;SDS011;13462;50.764;4.332;2022-07-04T01:45:14;7.90;;;3.65;;
25581;SDS011;13462;50.764;4.332;2022-07-04T01:47:40;8.52;;;3.58;;
25581;SDS011;13462;50.764;4.332;2022-07-04T01:50:07;8.90;;;3.67;;
25581;SDS011;13462;50.764;4.332;2022-07-04T01:52:34;4.28;;;3.08;;
25581;SDS011;13462;50.764;4.332;2022-07-04T01:55:00;5.30;;;3.13;;
25581;SDS011;13462;50.764;4.332;2022-07-04T01:57:26;5.82;;;3.63;;
25581;SDS011;13462;50.764;4.332;2022-07-04T01:59:51;6.30;;;3.45;;
25581;SDS011;13462;50.764;4.332;2022-07-04T02:02:36;7.30;;;3.30;;
25581;SDS011;13462;50.764;4.332;2022-07-04T02:05:02;7.10;;;3.47;;
25581;SDS011;13462;50.764;4.332;2022-07-04T02:07:28;4.28;;;2.92;;
25581;SDS011;13462;50.764;4.332;2022-07-04T02:09:54;5.50;;;3.47;;
25581;SDS011;13462;50.764;4.332;2022-07-04T02:12:20;5.63;;;3.80;;
25581;SDS011;13462;50.764;4.332;2022-07-04T02:15:04;7.07;;;3.30;;
25581;SDS011;13462;50.764;4.332;2022-07-04T02:17:30;9.45;;;4.07;;
25581;SDS011;13462;50.764;4.332;2022-07-04T02:19:55;6.80;;;4.10;;
25581;SDS011;13462;50.764;4.332;2022-07-04T02:22:21;10.65;;;3.55;;
25581;SDS011;13462;50.764;4.332;2022-07-04T02:24:47;6.40;;;4.15;;
25581;SDS011;13462;50.764;4.332;2022-07-04T02:27:12;5.50;;;3.55;;
25581;SDS011;13462;50.764;4.332;2022-07-04T02:29:44;6.80;;;3.53;;
25581;SDS011;13462;50.764;4.332;2022-07-04T02:32:10;9.85;;;3.40;;
25581;SDS011;13462;50.764;4.332;2022-07-04T02:34:35;6.68;;;3.63;;
25581;SDS011;13462;50.764;4.332;2022-07-04T02:37:01;5.32;;;3.15;;
25581;SDS011;13462;50.764;4.332;2022-07-04T02:39:26;11.35;;;4.25;;
25581;SDS011;13462;50.764;4.332;2022-07-04T02:41:52;7.05;;;4.35;;
25581;SDS011;13462;50.764;4.332;2022-07-04T02:44:18;7.20;;;3.63;;
25581;SDS011;13462;50.764;4.332;2022-07-04T02:46:44;6.28;;;3.78;;
25581;SDS011;13462;50.764;4.332;2022-07-04T02:49:10;5.32;;;3.78;;
25581;SDS011;13462;50.764;4.332;2022-07-04T02:51:36;7.25;;;3.85;;
25581;SDS011;13462;50.764;4.332;2022-07-04T02:54:01;4.95;;;3.95;;
25581;SDS011;13462;50.764;4.332;2022-07-04T02:56:27;7.15;;;4.43;;
25581;SDS011;13462;50.764;4.332;2022-07-04T02:58:53;10.05;;;5.18;;
25581;SDS011;13462;50.764;4.332;2022-07-04T03:01:19;8.05;;;4.88;;
25581;SDS011;13462;50.764;4.332;2022-07-04T03:03:45;8.40;;;4.47;;
25581;SDS011;13462;50.764;4.332;2022-07-04T03:06:11;4.70;;;3.92;;
25581;SDS011;13462;50.764;4.332;2022-07-04T03:08:37;10.25;;;4.82;;
25581;SDS011;13462;50.764;4.332;2022-07-04T03:11:03;10.80;;;4.57;;
25581;SDS011;13462;50.764;4.332;2022-07-04T03:13:29;10.63;;;4.43;;
25581;SDS011;13462;50.764;4.332;2022-07-04T03:15:55;7.00;;;4.32;;
25581;SDS011;13462;50.764;4.332;2022-07-04T03:18:20;10.32;;;4.50;;
25581;SDS011;13462;50.764;4.332;2022-07-04T03:20:46;7.65;;;4.22;;
25581;SDS011;13462;50.764;4.332;2022-07-04T03:23:12;7.55;;;3.50;;
25581;SDS011;13462;50.764;4.332;2022-07-04T03:25:38;9.15;;;4.50;;
25581;SDS011;13462;50.764;4.332;2022-07-04T03:28:05;7.13;;;3.50;;
25581;SDS011;13462;50.764;4.332;2022-07-04T03:30:31;5.78;;;2.90;;
25581;SDS011;13462;50.764;4.332;2022-07-04T03:32:57;6.68;;;4.15;;
25581;SDS011;13462;50.764;4.332;2022-07-04T03:35:23;6.03;;;3.63;;
25581;SDS011;13462;50.764;4.332;2022-07-04T03:37:48;7.18;;;3.72;;
25581;SDS011;13462;50.764;4.332;2022-07-04T03:40:15;7.10;;;3.40;;
25581;SDS011;13462;50.764;4.332;2022-07-04T03:42:42;8.93;;;4.15;;
25581;SDS011;13462;50.764;4.332;2022-07-04T03:45:07;9.02;;;3.78;;
25581;SDS011;13462;50.764;4.332;2022-07-04T03:47:34;8.13;;;3.70;;
25581;SDS011;13462;50.764;4.332;2022-07-04T03:49:59;9.60;;;3.65;;
25581;SDS011;13462;50.764;4.332;2022-07-04T03:52:25;8.15;;;3.75;;
25581;SDS011;13462;50.764;4.332;2022-07-04T03:54:50;8.93;;;3.97;;
25581;SDS011;13462;50.764;4.332;2022-07-04T03:57:16;7.78;;;3.50;;
25581;SDS011;13462;50.764;4.332;2022-07-04T03:59:42;5.43;;;3.60;;
25581;SDS011;13462;50.764;4.332;2022-07-04T04:02:07;6.82;;;3.75;;
25581;SDS011;13462;50.764;4.332;2022-07-04T04:04:33;6.78;;;3.20;;
25581;SDS011;13462;50.764;4.332;2022-07-04T04:07:17;8.13;;;3.58;;
25581;SDS011;13462;50.764;4.332;2022-07-04T04:09:42;9.43;;;3.20;;
25581;SDS011;13462;50.764;4.332;2022-07-04T04:12:08;7.82;;;3.90;;
25581;SDS011;13462;50.764;4.332;2022-07-04T04:14:34;4.78;;;3.38;;
25581;SDS011;13462;50.764;4.332;2022-07-04T04:17:00;8.13;;;3.10;;
25581;SDS011;13462;50.764;4.332;2022-07-04T04:19:25;7.45;;;3.13;;
25581;SDS011;13462;50.764;4.332;2022-07-04T04:21:51;7.00;;;3.78;;
25581;SDS011;13462;50.764;4.332;2022-07-04T04:24:16;7.75;;;3.33;;
25581;SDS011;13462;50.764;4.332;2022-07-04T04:26:42;6.18;;;3.28;;
25581;SDS011;13462;50.764;4.332;2022-07-04T04:29:08;12.70;;;3.53;;
25581;SDS011;13462;50.764;4.332;2022-07-04T04:31:33;9.93;;;3.47;;
25581;SDS011;13462;50.764;4.332;2022-07-04T04:33:59;9.70;;;2.92;;
25581;SDS011;13462;50.764;4.332;2022-07-04T04:36:24;4.97;;;2.72;;
25581;SDS011;13462;50.764;4.332;2022-07-04T04:38:50;7.30;;;3.15;;
25581;SDS011;13462;50.764;4.332;2022-07-04T04:41:16;4.45;;;2.60;;
25581;SDS011;13462;50.764;4.332;2022-07-04T04:43:41;4.47;;;2.58;;
25581;SDS011;13462;50.764;4.332;2022-07-04T04:46:07;6.15;;;3.58;;
25581;SDS011;13462;50.764;4.332;2022-07-04T04:48:34;6.07;;;3.47;;
25581;SDS011;13462;50.764;4.332;2022-07-04T04:50:59;3.35;;;2.75;;
25581;SDS011;13462;50.764;4.332;2022-07-04T04:53:25;10.63;;;3.10;;
25581;SDS011;13462;50.764;4.332;2022-07-04T04:55:52;6.05;;;2.72;;
25581;SDS011;13462;50.764;4.332;2022-07-04T04:58:18;5.70;;;3.20;;
25581;SDS011;13462;50.764;4.332;2022-07-04T05:00:44;6.40;;;3.55;;
25581;SDS011;13462;50.764;4.332;2022-07-04T05:03:10;6.15;;;2.72;;
25581;SDS011;13462;50.764;4.332;2022-07-04T05:05:36;6.25;;;3.55;;
25581;SDS011;13462;50.764;4.332;2022-07-04T05:08:02;6.90;;;2.92;;
25581;SDS011;13462;50.764;4.332;2022-07-04T05:10:28;6.30;;;3.00;;
25581;SDS011;13462;50.764;4.332;2022-07-04T05:12:53;6.18;;;2.97;;
25581;SDS011;13462;50.764;4.332;2022-07-04T05:15:20;5.90;;;3.20;;
25581;SDS011;13462;50.764;4.332;2022-07-04T05:17:46;4.60;;;2.70;;
25581;SDS011;13462;50.764;4.332;2022-07-04T05:20:11;6.53;;;3.03;;
25581;SDS011;13462;50.764;4.332;2022-07-04T05:22:37;11.00;;;3.08;;
25581;SDS011;13462;50.764;4.332;2022-07-04T05:25:02;6.32;;;3.13;;
25581;SDS011;13462;50.764;4.332;2022-07-04T05:27:28;7.35;;;2.83;;
25581;SDS011;13462;50.764;4.332;2022-07-04T05:29:55;7.28;;;3.60;;
25581;SDS011;13462;50.764;4.332;2022-07-04T05:32:22;14.77;;;3.10;;
25581;SDS011;13462;50.764;4.332;2022-07-04T05:34:47;6.43;;;2.60;;
25581;SDS011;13462;50.764;4.332;2022-07-04T05:37:13;6.47;;;2.72;;
25581;SDS011;13462;50.764;4.332;2022-07-04T05:39:38;5.10;;;2.90;;
25581;SDS011;13462;50.764;4.332;2022-07-04T05:42:04;4.97;;;2.90;;
25581;SDS011;13462;50.764;4.332;2022-07-04T05:44:30;7.05;;;2.80;;
25581;SDS011;13462;50.764;4.332;2022-07-04T05:46:55;9.05;;;2.90;;
25581;SDS011;13462;50.764;4.332;2022-07-04T05:49:21;9.05;;;3.17;;
25581;SDS011;13462;50.764;4.332;2022-07-04T05:51:46;3.60;;;2.22;;
25581;SDS011;13462;50.764;4.332;2022-07-04T05:54:12;5.68;;;2.45;;
25581;SDS011;13462;50.764;4.332;2022-07-04T05:56:38;6.57;;;3.17;;
25581;SDS011;13462;50.764;4.332;2022-07-04T05:59:04;8.75;;;2.67;;
25581;SDS011;13462;50.764;4.332;2022-07-04T06:01:30;9.07;;;2.97;;
25581;SDS011;13462;50.764;4.332;2022-07-04T06:03:56;4.35;;;2.42;;
25581;SDS011;13462;50.764;4.332;2022-07-04T06:06:21;9.55;;;2.72;;
25581;SDS011;13462;50.764;4.332;2022-07-04T06:08:47;6.07;;;2.85;;
25581;SDS011;13462;50.764;4.332;2022-07-04T06:11:12;4.35;;;2.67;;
25581;SDS011;13462;50.764;4.332;2022-07-04T06:13:39;5.53;;;2.58;;
25581;SDS011;13462;50.764;4.332;2022-07-04T06:16:05;5.20;;;2.58;;
25581;SDS011;13462;50.764;4.332;2022-07-04T06:18:30;7.07;;;2.60;;
25581;SDS011;13462;50.764;4.332;2022-07-04T06:20:56;14.02;;;2.47;;
25581;SDS011;13462;50.764;4.332;2022-07-04T06:23:22;3.40;;;2.17;;
25581;SDS011;13462;50.764;4.332;2022-07-04T06:25:47;7.75;;;2.53;;
25581;SDS011;13462;50.764;4.332;2022-07-04T06:28:13;3.80;;;2.05;;
25581;SDS011;13462;50.764;4.332;2022-07-04T06:30:39;5.63;;;2.30;;
25581;SDS011;13462;50.764;4.332;2022-07-04T06:33:04;4.05;;;1.90;;
25581;SDS011;13462;50.764;4.332;2022-07-04T06:35:30;4.72;;;1.85;;
25581;SDS011;13462;50.764;4.332;2022-07-04T06:38:16;4.53;;;2.10;;
25581;SDS011;13462;50.764;4.332;2022-07-04T06:40:43;3.65;;;1.70;;
25581;SDS011;13462;50.764;4.332;2022-07-04T06:43:09;3.70;;;1.80;;
25581;SDS011;13462;50.764;4.332;2022-07-04T06:45:35;4.97;;;1.75;;
25581;SDS011;13462;50.764;4.332;2022-07-04T06:48:01;5.68;;;1.88;;
25581;SDS011;13462;50.764;4.332;2022-07-04T06:50:31;5.13;;;1.92;;
25581;SDS011;13462;50.764;4.332;2022-07-04T06:53:07;5.93;;;1.80;;
25581;SDS011;13462;50.764;4.332;2022-07-04T06:55:33;4.38;;;1.70;;
25581;SDS011;13462;50.764;4.332;2022-07-04T06:58:00;6.63;;;1.85;;
25581;SDS011;13462;50.764;4.332;2022-07-04T07:00:25;3.10;;;1.40;;
25581;SDS011;13462;50.764;4.332;2022-07-04T07:02:51;3.13;;;1.40;;
25581;SDS011;13462;50.764;4.332;2022-07-04T07:05:17;8.02;;;1.58;;
25581;SDS011;13462;50.764;4.332;2022-07-04T07:07:42;3.33;;;1.73;;
25581;SDS011;13462;50.764;4.332;2022-07-04T07:10:08;2.58;;;1.52;;
25581;SDS011;13462;50.764;4.332;2022-07-04T07:12:34;3.50;;;1.77;;
25581;SDS011;13462;50.764;4.332;2022-07-04T07:15:00;3.67;;;1.40;;
25581;SDS011;13462;50.764;4.332;2022-07-04T07:17:26;2.28;;;1.13;;
25581;SDS011;13462;50.764;4.332;2022-07-04T07:19:52;5.03;;;1.52;;
25581;SDS011;13462;50.764;4.332;2022-07-04T07:22:18;4.22;;;1.50;;
25581;SDS011;13462;50.764;4.332;2022-07-04T07:24:44;2.28;;;1.50;;
25581;SDS011;13462;50.764;4.332;2022-07-04T07:27:10;4.35;;;1.55;;
25581;SDS011;13462;50.764;4.332;2022-07-04T07:29:36;2.78;;;1.23;;
25581;SDS011;13462;50.764;4.332;2022-07-04T07:32:02;3.28;;;1.30;;
25581;SDS011;13462;50.764;4.332;2022-07-04T07:34:29;14.38;;;2.47;;
25581;SDS011;13462;50.764;4.332;2022-07-04T07:36:55;3.00;;;1.33;;
25581;SDS011;13462;50.764;4.332;2022-07-04T07:39:20;5.25;;;1.75;;
25581;SDS011;13462;50.764;4.332;2022-07-04T07:41:46;5.57;;;1.80;;
25581;SDS011;13462;50.764;4.332;2022-07-04T07:44:12;4.07;;;1.08;;
25581;SDS011;13462;50.764;4.332;2022-07-04T07:46:37;2.25;;;1.27;;
25581;SDS011;13462;50.764;4.332;2022-07-04T07:49:03;5.15;;;1.20;;
25581;SDS011;13462;50.764;4.332;2022-07-04T07:51:29;4.28;;;1.17;;
25581;SDS011;13462;50.764;4.332;2022-07-04T07:53:55;2.72;;;1.17;;
25581;SDS011;13462;50.764;4.332;2022-07-04T07:56:21;4.20;;;1.33;;
25581;SDS011;13462;50.764;4.332;2022-07-04T07:58:47;2.80;;;1.40;;
25581;SDS011;13462;50.764;4.332;2022-07-04T08:01:14;6.00;;;1.25;;
25581;SDS011;13462;50.764;4.332;2022-07-04T08:03:40;4.72;;;1.10;;
25581;SDS011;13462;50.764;4.332;2022-07-04T08:06:24;11.45;;;2.22;;
25581;SDS011;13462;50.764;4.332;2022-07-04T08:08:50;3.05;;;1.55;;
25581;SDS011;13462;50.764;4.332;2022-07-04T08:11:15;7.35;;;1.65;;
25581;SDS011;13462;50.764;4.332;2022-07-04T08:13:41;3.63;;;1.52;;
25581;SDS011;13462;50.764;4.332;2022-07-04T08:16:07;2.10;;;1.50;;
25581;SDS011;13462;50.764;4.332;2022-07-04T08:18:33;7.00;;;1.73;;
25581;SDS011;13462;50.764;4.332;2022-07-04T08:20:59;4.10;;;1.30;;
25581;SDS011;13462;50.764;4.332;2022-07-04T08:23:26;3.03;;;1.23;;
25581;SDS011;13462;50.764;4.332;2022-07-04T08:25:52;4.43;;;1.63;;
25581;SDS011;13462;50.764;4.332;2022-07-04T08:28:18;5.15;;;2.08;;
25581;SDS011;13462;50.764;4.332;2022-07-04T08:30:44;2.55;;;1.33;;
25581;SDS011;13462;50.764;4.332;2022-07-04T08:33:09;2.20;;;1.00;;
25581;SDS011;13462;50.764;4.332;2022-07-04T08:35:35;4.15;;;1.20;;
25581;SDS011;13462;50.764;4.332;2022-07-04T08:38:00;7.63;;;1.33;;
25581;SDS011;13462;50.764;4.332;2022-07-04T08:40:26;3.67;;;1.42;;
25581;SDS011;13462;50.764;4.332;2022-07-04T08:42:53;3.50;;;1.42;;
25581;SDS011;13462;50.764;4.332;2022-07-04T08:45:32;3.60;;;1.92;;
25581;SDS011;13462;50.764;4.332;2022-07-04T08:48:03;3.53;;;1.40;;
25581;SDS011;13462;50.764;4.332;2022-07-04T08:50:38;5.78;;;2.25;;
25581;SDS011;13462;50.764;4.332;2022-07-04T08:53:15;3.85;;;1.90;;
25581;SDS011;13462;50.764;4.332;2022-07-04T08:55:45;5.15;;;2.70;;
25581;SDS011;13462;50.764;4.332;2022-07-04T08:58:42;6.50;;;3.15;;
25581;SDS011;13462;50.764;4.332;2022-07-04T09:01:08;8.70;;;4.45;;
25581;SDS011;13462;50.764;4.332;2022-07-04T09:03:40;8.82;;;5.72;;
25581;SDS011;13462;50.764;4.332;2022-07-04T09:06:06;12.48;;;7.97;;
25581;SDS011;13462;50.764;4.332;2022-07-04T09:08:32;17.08;;;10.00;;
25581;SDS011;13462;50.764;4.332;2022-07-04T09:10:58;16.05;;;9.95;;
25581;SDS011;13462;50.764;4.332;2022-07-04T09:13:25;18.85;;;11.38;;
25581;SDS011;13462;50.764;4.332;2022-07-04T09:15:51;14.88;;;9.70;;
25581;SDS011;13462;50.764;4.332;2022-07-04T09:21:02;26.20;;;14.52;;
25581;SDS011;13462;50.764;4.332;2022-07-04T09:23:30;28.27;;;17.42;;
25581;SDS011;13462;50.764;4.332;2022-07-04T09:28:40;26.75;;;15.82;;
25581;SDS011;13462;50.764;4.332;2022-07-04T09:31:13;24.80;;;15.88;;
25581;SDS011;13462;50.764;4.332;2022-07-04T09:33:46;24.33;;;15.45;;
25581;SDS011;13462;50.764;4.332;2022-07-04T09:36:22;21.98;;;13.43;;
25581;SDS011;13462;50.764;4.332;2022-07-04T09:44:23;22.27;;;13.25;;
25581;SDS011;13462;50.764;4.332;2022-07-04T09:46:54;19.08;;;10.82;;
25581;SDS011;13462;50.764;4.332;2022-07-04T09:49:21;12.57;;;8.63;;
25581;SDS011;13462;50.764;4.332;2022-07-04T09:51:48;15.45;;;8.93;;
25581;SDS011;13462;50.764;4.332;2022-07-04T09:54:22;17.75;;;9.07;;
25581;SDS011;13462;50.764;4.332;2022-07-04T09:56:59;16.25;;;8.57;;
25581;SDS011;13462;50.764;4.332;2022-07-04T09:59:26;13.52;;;8.40;;
25581;SDS011;13462;50.764;4.332;2022-07-04T10:02:12;13.65;;;8.82;;
25581;SDS011;13462;50.764;4.332;2022-07-04T10:04:46;16.95;;;10.15;;
25581;SDS011;13462;50.764;4.332;2022-07-04T10:07:32;20.42;;;10.77;;
25581;SDS011;13462;50.764;4.332;2022-07-04T10:12:58;12.13;;;7.47;;
25581;SDS011;13462;50.764;4.332;2022-07-04T10:15:29;17.50;;;8.50;;
25581;SDS011;13462;50.764;4.332;2022-07-04T10:17:55;17.35;;;10.10;;
25581;SDS011;13462;50.764;4.332;2022-07-04T10:20:20;15.43;;;8.82;;
25581;SDS011;13462;50.764;4.332;2022-07-04T10:22:46;15.07;;;8.85;;
25581;SDS011;13462;50.764;4.332;2022-07-04T10:25:12;12.15;;;5.50;;
25581;SDS011;13462;50.764;4.332;2022-07-04T10:27:38;8.93;;;3.55;;
25581;SDS011;13462;50.764;4.332;2022-07-04T10:30:05;6.10;;;3.03;;
25581;SDS011;13462;50.764;4.332;2022-07-04T10:32:34;7.38;;;3.60;;
25581;SDS011;13462;50.764;4.332;2022-07-04T10:35:01;5.53;;;2.42;;
25581;SDS011;13462;50.764;4.332;2022-07-04T10:41:06;3.08;;;1.85;;
25581;SDS011;13462;50.764;4.332;2022-07-04T10:48:35;5.55;;;1.65;;
25581;SDS011;13462;50.764;4.332;2022-07-04T10:51:01;2.72;;;1.10;;
25581;SDS011;13462;50.764;4.332;2022-07-04T10:53:31;5.72;;;1.60;;
25581;SDS011;13462;50.764;4.332;2022-07-04T10:58:45;1.48;;;1.33;;
25581;SDS011;13462;50.764;4.332;2022-07-04T11:01:15;5.03;;;1.48;;
25581;SDS011;13462;50.764;4.332;2022-07-04T11:17:07;3.30;;;1.50;;
25581;SDS011;13462;50.764;4.332;2022-07-04T11:19:36;4.38;;;1.60;;
25581;SDS011;13462;50.764;4.332;2022-07-04T11:22:02;3.70;;;1.30;;
25581;SDS011;13462;50.764;4.332;2022-07-04T11:24:30;3.22;;;1.40;;
25581;SDS011;13462;50.764;4.332;2022-07-04T11:26:56;3.33;;;1.50;;
25581;SDS011;13462;50.764;4.332;2022-07-04T11:29:22;3.22;;;1.40;;
25581;SDS011;13462;50.764;4.332;2022-07-04T11:31:49;4.55;;;1.58;;
25581;SDS011;13462;50.764;4.332;2022-07-04T11:34:16;2.33;;;1.60;;
25581;SDS011;13462;50.764;4.332;2022-07-04T11:36:43;3.97;;;1.60;;
25581;SDS011;13462;50.764;4.332;2022-07-04T11:39:11;4.20;;;1.50;;
25581;SDS011;13462;50.764;4.332;2022-07-04T11:41:44;3.03;;;1.63;;
25581;SDS011;13462;50.764;4.332;2022-07-04T11:44:37;3.13;;;1.48;;
25581;SDS011;13462;50.764;4.332;2022-07-04T11:47:32;3.88;;;1.77;;
25581;SDS011;13462;50.764;4.332;2022-07-04T11:50:02;4.13;;;1.60;;
25581;SDS011;13462;50.764;4.332;2022-07-04T11:52:46;3.95;;;1.95;;
25581;SDS011;13462;50.764;4.332;2022-07-04T11:55:13;4.90;;;1.67;;
25581;SDS011;13462;50.764;4.332;2022-07-04T11:57:44;3.80;;;1.45;;
25581;SDS011;13462;50.764;4.332;2022-07-04T12:02:44;3.55;;;1.42;;
25581;SDS011;13462;50.764;4.332;2022-07-04T12:05:12;2.97;;;1.75;;
25581;SDS011;13462;50.764;4.332;2022-07-04T12:07:39;4.32;;;1.80;;
25581;SDS011;13462;50.764;4.332;2022-07-04T12:10:17;5.05;;;1.58;;
25581;SDS011;13462;50.764;4.332;2022-07-04T12:12:54;4.60;;;1.40;;
25581;SDS011;13462;50.764;4.332;2022-07-04T12:15:20;4.57;;;1.90;;
25581;SDS011;13462;50.764;4.332;2022-07-04T12:17:54;2.00;;;1.30;;
25581;SDS011;13462;50.764;4.332;2022-07-04T12:20:20;5.20;;;1.60;;
25581;SDS011;13462;50.764;4.332;2022-07-04T12:22:54;8.02;;;2.00;;
25581;SDS011;13462;50.764;4.332;2022-07-04T12:25:25;4.57;;;1.50;;
25581;SDS011;13462;50.764;4.332;2022-07-04T12:27:57;4.35;;;1.60;;
25581;SDS011;13462;50.764;4.332;2022-07-04T12:30:25;2.90;;;1.55;;
25581;SDS011;13462;50.764;4.332;2022-07-04T12:32:53;3.85;;;1.92;;
25581;SDS011;13462;50.764;4.332;2022-07-04T12:38:16;5.68;;;1.70;;
25581;SDS011;13462;50.764;4.332;2022-07-04T12:40:50;2.75;;;1.63;;
25581;SDS011;13462;50.764;4.332;2022-07-04T12:43:22;2.08;;;1.30;;
25581;SDS011;13462;50.764;4.332;2022-07-04T12:45:52;4.70;;;1.30;;
25581;SDS011;13462;50.764;4.332;2022-07-04T12:48:21;3.00;;;1.67;;
25581;SDS011;13462;50.764;4.332;2022-07-04T12:50:49;1.77;;;1.33;;
25581;SDS011;13462;50.764;4.332;2022-07-04T12:53:15;5.28;;;1.65;;
25581;SDS011;13462;50.764;4.332;2022-07-04T12:55:42;4.22;;;1.63;;
25581;SDS011;13462;50.764;4.332;2022-07-04T12:58:09;2.58;;;1.20;;
25581;SDS011;13462;50.764;4.332;2022-07-04T13:00:36;3.38;;;1.33;;
25581;SDS011;13462;50.764;4.332;2022-07-04T13:03:03;1.27;;;1.17;;
25581;SDS011;13462;50.764;4.332;2022-07-04T13:05:29;4.15;;;1.42;;
25581;SDS011;13462;50.764;4.332;2022-07-04T13:07:54;5.30;;;1.50;;
25581;SDS011;13462;50.764;4.332;2022-07-04T13:10:20;3.03;;;1.85;;
25581;SDS011;13462;50.764;4.332;2022-07-04T13:12:46;2.90;;;1.48;;
25581;SDS011;13462;50.764;4.332;2022-07-04T13:15:11;4.00;;;1.55;;
25581;SDS011;13462;50.764;4.332;2022-07-04T13:17:37;2.78;;;1.58;;
25581;SDS011;13462;50.764;4.332;2022-07-04T13:20:03;3.70;;;1.33;;
25581;SDS011;13462;50.764;4.332;2022-07-04T13:22:29;4.03;;;1.65;;
25581;SDS011;13462;50.764;4.332;2022-07-04T13:24:55;2.17;;;1.25;;
25581;SDS011;13462;50.764;4.332;2022-07-04T13:27:21;2.53;;;1.30;;
25581;SDS011;13462;50.764;4.332;2022-07-04T13:29:47;2.53;;;1.45;;
25581;SDS011;13462;50.764;4.332;2022-07-04T13:32:12;3.15;;;1.20;;
25581;SDS011;13462;50.764;4.332;2022-07-04T13:34:38;3.10;;;1.75;;
25581;SDS011;13462;50.764;4.332;2022-07-04T13:37:04;3.10;;;1.30;;
25581;SDS011;13462;50.764;4.332;2022-07-04T13:39:30;5.25;;;1.55;;
25581;SDS011;13462;50.764;4.332;2022-07-04T13:41:56;2.30;;;1.73;;
25581;SDS011;13462;50.764;4.332;2022-07-04T13:44:22;2.40;;;1.77;;
25581;SDS011;13462;50.764;4.332;2022-07-04T13:46:48;2.05;;;1.40;;
25581;SDS011;13462;50.764;4.332;2022-07-04T13:49:13;3.50;;;2.10;;
25581;SDS011;13462;50.764;4.332;2022-07-04T13:51:40;1.42;;;1.25;;
25581;SDS011;13462;50.764;4.332;2022-07-04T13:54:06;2.78;;;1.60;;
25581;SDS011;13462;50.764;4.332;2022-07-04T13:56:33;3.03;;;1.50;;
25581;SDS011;13462;50.764;4.332;2022-07-04T13:58:59;3.67;;;1.63;;
25581;SDS011;13462;50.764;4.332;2022-07-04T14:01:25;4.80;;;1.63;;
25581;SDS011;13462;50.764;4.332;2022-07-04T14:03:51;2.90;;;1.42;;
25581;SDS011;13462;50.764;4.332;2022-07-04T14:06:18;5.35;;;1.80;;
25581;SDS011;13462;50.764;4.332;2022-07-04T14:08:44;2.80;;;1.42;;
25581;SDS011;13462;50.764;4.332;2022-07-04T14:11:09;1.55;;;1.30;;
25581;SDS011;13462;50.764;4.332;2022-07-04T14:13:36;1.95;;;1.45;;
25581;SDS011;13462;50.764;4.332;2022-07-04T14:16:02;3.15;;;1.58;;
25581;SDS011;13462;50.764;4.332;2022-07-04T14:18:30;1.40;;;1.20;;
25581;SDS011;13462;50.764;4.332;2022-07-04T14:20:55;2.47;;;1.50;;
25581;SDS011;13462;50.764;4.332;2022-07-04T14:23:21;1.88;;;1.40;;
25581;SDS011;13462;50.764;4.332;2022-07-04T14:26:05;2.08;;;1.38;;
25581;SDS011;13462;50.764;4.332;2022-07-04T14:28:31;3.55;;;1.42;;
25581;SDS011;13462;50.764;4.332;2022-07-04T14:30:58;3.97;;;1.58;;
25581;SDS011;13462;50.764;4.332;2022-07-04T14:33:24;5.65;;;1.70;;
25581;SDS011;13462;50.764;4.332;2022-07-04T14:35:50;1.63;;;1.33;;
25581;SDS011;13462;50.764;4.332;2022-07-04T14:38:17;3.33;;;1.45;;
25581;SDS011;13462;50.764;4.332;2022-07-04T14:40:43;3.05;;;1.30;;
25581;SDS011;13462;50.764;4.332;2022-07-04T14:43:11;2.75;;;1.45;;
25581;SDS011;13462;50.764;4.332;2022-07-04T14:45:38;3.17;;;2.10;;
25581;SDS011;13462;50.764;4.332;2022-07-04T14:48:04;3.03;;;1.73;;
25581;SDS011;13462;50.764;4.332;2022-07-04T14:50:30;3.17;;;1.80;;
25581;SDS011;13462;50.764;4.332;2022-07-04T14:52:56;3.25;;;1.80;;
25581;SDS011;13462;50.764;4.332;2022-07-04T14:55:22;3.25;;;1.55;;
25581;SDS011;13462;50.764;4.332;2022-07-04T14:57:47;2.60;;;1.50;;
25581;SDS011;13462;50.764;4.332;2022-07-04T15:00:13;1.88;;;1.30;;
25581;SDS011;13462;50.764;4.332;2022-07-04T15:02:39;5.60;;;2.05;;
25581;SDS011;13462;50.764;4.332;2022-07-04T15:05:04;2.78;;;1.30;;
25581;SDS011;13462;50.764;4.332;2022-07-04T15:07:31;1.70;;;1.40;;
25581;SDS011;13462;50.764;4.332;2022-07-04T15:09:57;1.85;;;1.60;;
25581;SDS011;13462;50.764;4.332;2022-07-04T15:12:22;3.67;;;1.40;;
25581;SDS011;13462;50.764;4.332;2022-07-04T15:14:48;2.15;;;1.65;;
25581;SDS011;13462;50.764;4.332;2022-07-04T15:17:14;2.85;;;1.73;;
25581;SDS011;13462;50.764;4.332;2022-07-04T15:19:40;2.33;;;1.40;;
25581;SDS011;13462;50.764;4.332;2022-07-04T15:22:24;5.05;;;2.10;;
25581;SDS011;13462;50.764;4.332;2022-07-04T15:25:08;3.08;;;1.77;;
25581;SDS011;13462;50.764;4.332;2022-07-04T15:27:34;2.88;;;1.70;;
25581;SDS011;13462;50.764;4.332;2022-07-04T15:29:59;3.08;;;1.70;;